Time;durP1;ratioP1;P1;durP2;ratioP2;P2;SDS_P1;SDS_P2;PMS_P1;PMS_P2;Temp;Humidity;BMP_temperature;BMP_pressure;BME280_temperature;BME280_humidity;BME280_pressure;Samples;Min_cycle;Max_cycle;Signal;HPM_P1;HPM_P2
2022/04/02 00:01:39;;;;;;;51.02;32.70;;;;;;;8.69;88.99;92279.14;1648299;85;21137;-53
2022/04/02 00:04:07;;;;;;;57.88;34.55;;;;;;;8.65;88.70;92271.16;1621373;85;21024;-53
2022/04/02 00:06:34;;;;;;;57.98;34.53;;;;;;;8.66;89.26;92271.28;1634784;84;21038;-52
2022/04/02 00:09:04;;;;;;;63.10;40.03;;;;;;;8.71;89.29;92267.83;1637963;85;21062;-55
2022/04/02 00:11:31;;;;;;;53.60;30.62;;;;;;;8.78;89.58;92267.97;1641755;84;21045;-56
2022/04/02 00:13:58;;;;;;;50.50;29.98;;;;;;;8.78;88.74;92265.96;1639319;85;21552;-58
2022/04/02 00:16:26;;;;;;;59.10;32.42;;;;;;;8.69;88.30;92261.33;1651784;84;21009;-54
2022/04/02 00:18:53;;;;;;;45.70;29.63;;;;;;;8.65;88.34;92258.09;1641985;85;21128;-55
2022/04/02 00:21:21;;;;;;;54.27;33.60;;;;;;;8.68;88.65;92261.20;1650184;85;21635;-56
2022/04/02 00:23:50;;;;;;;49.65;30.40;;;;;;;8.68;88.85;92265.31;1639997;85;21061;-55
2022/04/02 00:26:22;;;;;;;47.10;29.72;;;;;;;8.72;89.04;92254.25;1637316;84;21120;-55
2022/04/02 00:28:49;;;;;;;71.42;40.35;;;;;;;8.72;88.75;92259.73;1638289;84;21009;-53
2022/04/02 00:31:18;;;;;;;69.10;40.48;;;;;;;8.73;88.78;92257.72;1613215;86;21143;-56
2022/04/02 00:33:48;;;;;;;82.65;43.92;;;;;;;8.77;88.85;92258.98;1642883;84;21184;-55
2022/04/02 00:36:16;;;;;;;107.32;54.70;;;;;;;8.79;88.64;92250.28;1614191;85;21177;-56
2022/04/02 00:38:45;;;;;;;80.97;43.70;;;;;;;8.81;88.72;92238.92;1621603;85;22507;-57
2022/04/02 00:41:13;;;;;;;61.23;32.90;;;;;;;8.80;88.48;92240.81;1640014;85;21087;-59
2022/04/02 00:43:44;;;;;;;56.83;31.82;;;;;;;8.82;88.32;92232.20;1638612;85;21036;-56
2022/04/02 00:46:12;;;;;;;56.40;32.50;;;;;;;8.86;88.21;92223.13;1650134;85;21302;-54
2022/04/02 00:48:40;;;;;;;53.68;31.55;;;;;;;8.86;87.73;92222.38;1646687;85;21119;-54
2022/04/02 00:51:08;;;;;;;53.28;30.27;;;;;;;8.85;87.73;92220.27;1651853;85;22021;-56
2022/04/02 00:53:40;;;;;;;58.52;32.75;;;;;;;8.85;87.80;92224.38;1638195;84;21103;-56
2022/04/02 00:56:08;;;;;;;49.83;31.07;;;;;;;8.87;87.68;92223.86;1640574;84;21022;-55
2022/04/02 00:58:39;;;;;;;46.48;27.45;;;;;;;8.87;87.78;92223.26;1635381;85;21506;-53
2022/04/02 01:01:09;;;;;;;45.28;30.00;;;;;;;8.83;87.40;92218.63;1647280;85;21065;-58
2022/04/02 01:03:38;;;;;;;50.12;31.42;;;;;;;8.72;87.35;92217.25;1645465;85;21109;-53
2022/04/02 01:06:05;;;;;;;53.80;31.40;;;;;;;8.68;87.87;92223.60;1648765;85;21457;-53
2022/04/02 01:08:35;;;;;;;45.35;27.52;;;;;;;8.71;88.21;92202.66;1641635;84;21016;-53
2022/04/02 01:11:03;;;;;;;46.33;27.65;;;;;;;8.75;88.33;92212.14;1649333;85;21734;-58
2022/04/02 01:13:33;;;;;;;42.62;26.17;;;;;;;8.78;87.75;92202.19;1647865;85;21056;-56
2022/04/02 01:16:02;;;;;;;44.55;26.73;;;;;;;8.71;87.45;92202.66;1652198;84;21259;-55
2022/04/02 01:18:32;;;;;;;40.95;27.35;;;;;;;8.61;87.41;92211.01;1648452;84;21017;-57
2022/04/02 01:20:59;;;;;;;44.27;27.60;;;;;;;8.51;87.73;92202.27;1651507;84;21085;-55
2022/04/02 01:23:31;;;;;;;35.98;24.07;;;;;;;8.46;88.04;92205.73;1642742;84;21047;-57
2022/04/02 01:26:02;;;;;;;34.67;23.85;;;;;;;8.48;88.47;92207.38;1642089;84;21089;-56
2022/04/02 01:28:34;;;;;;;50.08;30.68;;;;;;;8.58;88.79;92207.25;1651187;84;21186;-55
2022/04/02 01:31:06;;;;;;;59.88;38.17;;;;;;;8.62;88.68;92202.27;1648005;85;21113;-56
2022/04/02 01:33:34;;;;;;;54.75;30.00;;;;;;;8.67;88.78;92208.41;1650689;85;21013;-57
2022/04/02 01:36:08;;;;;;;43.85;25.97;;;;;;;8.67;88.47;92193.94;1612274;87;21422;-56
2022/04/02 01:38:46;;;;;;;41.48;25.25;;;;;;;8.60;88.21;92197.19;1635486;84;21045;-58
2022/04/02 01:41:14;;;;;;;32.53;22.75;;;;;;;8.55;88.35;92193.18;1644633;85;21110;-57
2022/04/02 01:43:41;;;;;;;33.83;21.05;;;;;;;8.57;88.42;92205.00;1637156;85;21131;-53
2022/04/02 01:46:08;;;;;;;33.23;20.15;;;;;;;8.57;88.30;92205.76;1639233;85;21012;-55
2022/04/02 01:48:35;;;;;;;29.27;19.02;;;;;;;8.59;88.62;92199.16;1637775;85;21014;-56
2022/04/02 01:51:05;;;;;;;26.85;17.52;;;;;;;8.60;88.30;92204.03;1644638;84;21129;-58
2022/04/02 01:53:32;;;;;;;26.60;17.07;;;;;;;8.56;88.14;92206.24;1641497;85;21229;-56
2022/04/02 01:55:59;;;;;;;26.65;16.87;;;;;;;8.52;88.18;92220.20;1642464;85;21023;-56
2022/04/02 01:58:35;;;;;;;29.48;20.15;;;;;;;8.49;88.15;92217.09;1649525;85;21980;-54
2022/04/02 02:01:04;;;;;;;24.35;15.70;;;;;;;8.48;88.23;92218.33;1637948;84;22066;-56
2022/04/02 02:03:32;;;;;;;20.23;14.20;;;;;;;8.49;88.12;92210.23;1625508;86;21037;-55
2022/04/02 02:06:00;;;;;;;17.25;11.90;;;;;;;8.43;88.31;92215.57;1645921;85;21711;-54
2022/04/02 02:08:29;;;;;;;13.62;10.65;;;;;;;8.40;88.60;92206.98;1645745;84;21125;-56
2022/04/02 02:11:00;;;;;;;13.43;10.82;;;;;;;8.43;89.35;92221.05;1643124;85;21105;-55
2022/04/02 02:13:35;;;;;;;18.67;14.13;;;;;;;8.53;89.57;92222.30;1616697;86;21646;-54
2022/04/02 02:16:04;;;;;;;18.05;14.45;;;;;;;8.55;88.76;92223.92;1641788;85;21014;-58
2022/04/02 02:18:35;;;;;;;20.75;13.50;;;;;;;8.53;88.60;92216.83;1647597;85;21172;-55
2022/04/02 02:21:03;;;;;;;18.00;14.28;;;;;;;8.56;88.77;92227.55;1641809;85;21146;-57
2022/04/02 02:23:31;;;;;;;23.10;16.65;;;;;;;8.59;88.66;92226.56;1633694;85;21018;-56
2022/04/02 02:25:59;;;;;;;19.65;14.15;;;;;;;8.63;88.77;92230.44;1642060;85;21000;-56
2022/04/02 02:28:28;;;;;;;15.13;11.68;;;;;;;8.63;88.51;92230.44;1648618;85;21854;-54
2022/04/02 02:30:58;;;;;;;15.10;11.60;;;;;;;8.60;88.35;92228.69;1643713;84;21136;-55
2022/04/02 02:36:12;;;;;;;19.25;14.53;;;;;;;8.52;88.16;92221.57;1644898;85;21078;-55
2022/04/02 02:38:45;;;;;;;15.55;11.63;;;;;;;8.48;88.52;92222.44;1644106;85;21089;-55
2022/04/02 02:41:17;;;;;;;17.55;12.25;;;;;;;8.46;88.48;92223.53;1643959;85;21021;-53
2022/04/02 02:43:47;;;;;;;14.40;11.83;;;;;;;8.43;88.64;92226.53;1641644;84;21314;-57
2022/04/02 02:46:18;;;;;;;17.98;12.70;;;;;;;8.41;88.84;92222.91;1651633;84;21017;-54
2022/04/02 02:48:47;;;;;;;17.70;11.25;;;;;;;8.41;88.95;92233.86;1646410;84;21042;-55
2022/04/02 02:51:15;;;;;;;16.77;11.20;;;;;;;8.43;89.05;92232.01;1644934;84;21045;-56
2022/04/02 02:53:44;;;;;;;20.15;13.22;;;;;;;8.46;89.03;92234.48;1642707;85;21085;-57
2022/04/02 02:56:12;;;;;;;20.17;12.65;;;;;;;8.46;89.08;92229.01;1627309;86;21249;-53
2022/04/02 02:58:40;;;;;;;18.52;13.38;;;;;;;8.46;88.97;92230.38;1637134;84;21024;-55
2022/04/02 03:01:07;;;;;;;16.93;11.43;;;;;;;8.42;88.68;92231.88;1646821;84;21027;-54
2022/04/02 03:03:38;;;;;;;16.85;12.43;;;;;;;8.40;88.60;92233.73;1646496;84;21067;-52
2022/04/02 03:06:05;;;;;;;17.82;13.62;;;;;;;8.40;88.55;92233.00;1646896;84;21017;-56
2022/04/02 03:08:36;;;;;;;18.00;13.48;;;;;;;8.41;88.94;92237.97;1638458;84;21769;-54
2022/04/02 03:11:04;;;;;;;20.68;14.60;;;;;;;8.44;88.92;92227.39;1639820;84;22134;-57
2022/04/02 03:13:33;;;;;;;18.45;15.15;;;;;;;8.44;88.33;92240.35;1634615;84;21029;-56
2022/04/02 03:16:02;;;;;;;23.70;18.07;;;;;;;8.42;87.93;92246.95;1648413;84;21492;-57
2022/04/02 03:18:30;;;;;;;26.48;18.65;;;;;;;8.39;88.10;92251.41;1617148;85;21098;-57
2022/04/02 03:20:58;;;;;;;19.95;15.40;;;;;;;8.43;87.99;92251.19;1646556;84;21070;-56
2022/04/02 03:23:27;;;;;;;20.88;14.45;;;;;;;8.39;87.62;92247.91;1646822;84;21057;-57
2022/04/02 03:25:55;;;;;;;20.68;13.90;;;;;;;8.30;87.77;92250.88;1651374;84;21706;-54
2022/04/02 03:28:23;;;;;;;14.87;11.15;;;;;;;8.26;88.35;92253.11;1643937;85;21009;-55
2022/04/02 03:30:50;;;;;;;19.55;13.43;;;;;;;8.29;88.40;92251.48;1653236;84;21855;-55
2022/04/02 03:33:20;;;;;;;18.32;12.85;;;;;;;8.31;88.10;92253.14;1649004;84;22316;-57
2022/04/02 03:35:47;;;;;;;17.20;12.95;;;;;;;8.31;88.14;92250.41;1640878;84;20997;-57
2022/04/02 03:38:15;;;;;;;19.27;13.85;;;;;;;8.31;88.75;92247.66;1647841;84;21707;-55
2022/04/02 03:40:44;;;;;;;22.48;13.88;;;;;;;8.34;88.45;92256.26;1638561;84;20996;-57
2022/04/02 03:43:12;;;;;;;17.35;12.18;;;;;;;8.36;88.46;92256.52;1635274;85;21058;-56
2022/04/02 03:45:39;;;;;;;15.60;11.03;;;;;;;8.38;88.04;92247.78;1638759;84;21126;-56
2022/04/02 03:48:08;;;;;;;13.53;10.10;;;;;;;8.37;88.10;92258.00;1637362;84;21539;-60
2022/04/02 03:50:37;;;;;;;15.05;11.08;;;;;;;8.37;88.18;92258.00;1636387;85;21575;-58
2022/04/02 03:53:05;;;;;;;21.35;14.95;;;;;;;8.43;88.40;92258.77;1644463;84;21746;-60
2022/04/02 03:55:34;;;;;;;19.70;13.70;;;;;;;8.45;88.01;92258.28;1636271;85;21110;-58
2022/04/02 03:58:03;;;;;;;24.35;13.72;;;;;;;8.35;87.25;92264.60;1645068;85;21149;-57
2022/04/02 04:00:30;;;;;;;24.00;16.42;;;;;;;8.25;87.50;92263.30;1633453;85;21668;-57
2022/04/02 04:03:03;;;;;;;23.32;16.70;;;;;;;8.16;87.42;92265.48;1645301;84;21121;-55
2022/04/02 04:05:32;;;;;;;28.15;17.82;;;;;;;8.14;88.25;92268.72;1653779;85;21096;-55
2022/04/02 04:08:02;;;;;;;24.57;17.80;;;;;;;8.14;88.28;92267.35;1654846;86;21533;-53
2022/04/02 04:10:31;;;;;;;44.08;27.35;;;;;;;8.15;88.36;92265.34;1653757;86;21774;-54
2022/04/02 04:12:59;;;;;;;28.90;19.37;;;;;;;8.19;88.30;92269.39;1654922;86;20994;-55
2022/04/02 04:15:29;;;;;;;23.25;15.20;;;;;;;8.18;88.05;92269.87;1652435;86;21030;-54
2022/04/02 04:18:00;;;;;;;22.32;15.60;;;;;;;8.16;88.31;92277.19;1656322;85;21013;-55
2022/04/02 04:20:27;;;;;;;21.40;16.00;;;;;;;8.21;89.05;92275.75;1657118;86;21010;-55
2022/04/02 04:22:56;;;;;;;32.73;21.85;;;;;;;8.26;88.89;92279.86;1655614;86;21328;-55
2022/04/02 04:25:25;;;;;;;29.75;19.50;;;;;;;8.27;88.66;92279.99;1655852;85;20930;-53
2022/04/02 04:27:54;;;;;;;31.27;19.55;;;;;;;8.32;88.90;92279.89;1654172;85;21022;-54
2022/04/02 04:30:22;;;;;;;31.10;20.90;;;;;;;8.35;88.26;92287.88;1646225;84;21761;-54
2022/04/02 04:32:51;;;;;;;33.53;21.93;;;;;;;8.27;87.77;92288.20;1647747;86;21041;-54
2022/04/02 04:35:18;;;;;;;35.50;23.85;;;;;;;8.24;88.10;92287.09;1660304;85;21166;-55
2022/04/02 04:37:49;;;;;;;36.93;22.45;;;;;;;8.26;88.50;92285.97;1651505;85;20974;-54
2022/04/02 04:40:18;;;;;;;50.98;35.00;;;;;;;8.33;88.24;92290.37;1675163;85;20987;-55
2022/04/02 04:42:48;;;;;;;54.48;34.58;;;;;;;8.37;87.96;92279.16;1671537;84;21003;-54
2022/04/02 04:45:17;;;;;;;57.40;37.42;;;;;;;8.40;87.69;92287.15;1652658;84;20993;-54
2022/04/02 04:47:46;;;;;;;45.20;31.15;;;;;;;8.46;87.94;92290.65;1660284;86;21022;-55
2022/04/02 04:50:18;;;;;;;74.72;48.08;;;;;;;8.52;87.73;92292.05;1646448;85;21515;-54
2022/04/02 04:52:46;;;;;;;62.65;37.00;;;;;;;8.54;87.71;92299.14;1644160;86;20990;-54
2022/04/02 04:55:15;;;;;;;47.13;28.77;;;;;;;8.54;87.08;92295.80;1643945;86;21091;-55
2022/04/02 04:57:43;;;;;;;40.35;26.40;;;;;;;8.45;86.90;92292.53;1634101;85;21569;-56
2022/04/02 05:00:15;;;;;;;40.95;27.13;;;;;;;8.43;86.95;92290.27;1649880;85;21293;-56
2022/04/02 05:02:44;;;;;;;46.10;30.32;;;;;;;8.45;87.21;92289.79;1642308;85;20988;-54
2022/04/02 05:05:14;;;;;;;46.65;31.17;;;;;;;8.54;87.33;92299.14;1634736;85;21169;-56
2022/04/02 05:07:44;;;;;;;45.10;28.65;;;;;;;8.55;87.10;92301.41;1642896;86;21079;-56
2022/04/02 05:10:16;;;;;;;37.25;25.88;;;;;;;8.59;87.43;92308.03;1631218;85;21102;-56
2022/04/02 05:12:44;;;;;;;30.08;21.17;;;;;;;8.66;87.46;92308.27;1652649;85;21171;-55
2022/04/02 05:15:14;;;;;;;21.50;16.52;;;;;;;8.75;87.62;92312.18;1628714;86;21521;-56
2022/04/02 05:17:43;;;;;;;16.12;13.10;;;;;;;8.89;88.26;92314.70;1630424;86;21188;-55
2022/04/02 05:20:14;;;;;;;12.85;11.48;;;;;;;9.08;88.45;92314.38;1626034;86;21265;-56
2022/04/02 05:22:43;;;;;;;16.55;13.00;;;;;;;9.27;88.51;92317.41;1635695;86;21279;-56
2022/04/02 05:25:17;;;;;;;28.47;18.57;;;;;;;9.41;87.77;92310.94;1632043;86;21178;-55
2022/04/02 05:27:47;;;;;;;29.50;21.35;;;;;;;9.51;87.04;92313.55;1644167;85;21107;-54
2022/04/02 05:30:14;;;;;;;26.93;18.98;;;;;;;9.51;86.00;92323.16;1659605;83;21072;-56
2022/04/02 05:32:42;;;;;;;34.03;23.67;;;;;;;9.41;85.31;92317.80;1642369;84;22227;-57
2022/04/02 05:35:09;;;;;;;43.40;30.25;;;;;;;9.26;85.21;92322.12;1647694;85;21027;-55
2022/04/02 05:37:45;;;;;;;38.30;25.35;;;;;;;9.22;85.71;92325.01;1638996;86;21953;-58
2022/04/02 05:40:14;;;;;;;24.63;16.93;;;;;;;9.27;85.99;92330.48;1602194;86;21131;-56
2022/04/02 05:42:42;;;;;;;18.15;14.93;;;;;;;9.39;85.93;92333.37;1647093;86;21081;-55
2022/04/02 05:45:10;;;;;;;15.10;13.35;;;;;;;9.51;85.61;92338.24;1646115;86;21729;-56
2022/04/02 05:47:46;;;;;;;15.95;12.37;;;;;;;9.59;85.67;92331.77;1640815;86;21020;-59
2022/04/02 05:50:14;;;;;;;15.30;12.63;;;;;;;9.64;85.15;92335.13;1640670;86;21794;-57
2022/04/02 05:52:43;;;;;;;13.58;11.45;;;;;;;9.70;84.99;92339.25;1634831;84;21636;-57
2022/04/02 05:55:13;;;;;;;16.37;14.00;;;;;;;9.72;84.70;92331.26;1630499;86;21056;-59
2022/04/02 05:57:41;;;;;;;15.18;12.00;;;;;;;9.74;84.53;92330.89;1645971;86;21160;-56
2022/04/02 06:00:10;;;;;;;15.45;11.60;;;;;;;9.80;84.39;92337.12;1658945;86;21528;-57
2022/04/02 06:02:44;;;;;;;15.58;11.33;;;;;;;9.83;83.95;92342.25;1652422;86;21789;-56
2022/04/02 06:05:16;;;;;;;10.63;8.50;;;;;;;9.89;83.68;92341.00;1621667;86;21040;-56
2022/04/02 06:07:44;;;;;;;10.08;8.25;;;;;;;9.97;83.18;92348.11;1654305;85;21111;-57
2022/04/02 06:10:11;;;;;;;13.30;10.00;;;;;;;10.02;82.56;92348.75;1662540;84;21200;-57
2022/04/02 06:12:39;;;;;;;10.60;7.95;;;;;;;10.08;81.91;92347.50;1661560;84;21105;-57
2022/04/02 06:15:10;;;;;;;11.43;8.98;;;;;;;10.16;81.03;92353.23;1653673;85;21017;-57
2022/04/02 06:17:37;;;;;;;9.75;7.47;;;;;;;10.16;80.80;92353.23;1626617;86;21743;-57
2022/04/02 06:20:07;;;;;;;10.00;7.80;;;;;;;10.17;80.04;92350.61;1658638;86;21008;-57
2022/04/02 06:22:36;;;;;;;12.25;9.63;;;;;;;10.11;79.74;92347.10;1644088;86;21071;-57
2022/04/02 06:25:04;;;;;;;11.08;9.15;;;;;;;10.10;78.93;92357.36;1637946;86;21453;-58
2022/04/02 06:27:32;;;;;;;9.10;7.35;;;;;;;10.11;79.08;92350.61;1647135;85;21154;-59
2022/04/02 06:30:00;;;;;;;8.93;6.58;;;;;;;10.18;79.25;92363.09;1626046;86;21062;-63
2022/04/02 06:32:27;;;;;;;9.65;6.92;;;;;;;10.20;79.02;92357.84;1628002;85;21032;-60
2022/04/02 06:34:55;;;;;;;9.75;7.53;;;;;;;10.18;78.96;92365.84;1646622;85;21580;-61
2022/04/02 06:37:22;;;;;;;10.60;7.45;;;;;;;10.18;78.47;92365.20;1612571;86;22060;-60
2022/04/02 06:39:50;;;;;;;10.15;7.78;;;;;;;10.19;78.14;92367.34;1638298;85;21222;-61
2022/04/02 06:42:17;;;;;;;10.40;7.70;;;;;;;10.17;78.40;92371.22;1640378;84;21033;-62
2022/04/02 06:44:46;;;;;;;11.10;7.80;;;;;;;10.17;77.87;92379.45;1616214;85;21029;-61
2022/04/02 06:47:13;;;;;;;15.83;9.80;;;;;;;10.09;77.48;92377.84;1644366;84;21073;-59
2022/04/02 06:49:40;;;;;;;10.93;8.50;;;;;;;10.01;77.80;92367.83;1611518;85;21088;-61
2022/04/02 06:52:07;;;;;;;11.90;8.85;;;;;;;10.02;78.12;92377.59;1640333;84;21087;-64
2022/04/02 06:54:35;;;;;;;11.53;8.50;;;;;;;10.03;77.93;92381.83;1630724;85;21036;-64
2022/04/02 06:57:03;;;;;;;14.28;8.90;;;;;;;9.99;78.09;92378.56;1636975;84;21060;-61
2022/04/02 06:59:30;;;;;;;12.78;9.08;;;;;;;9.95;78.22;92380.82;1626094;86;21139;-56
2022/04/02 07:01:58;;;;;;;12.78;8.05;;;;;;;9.87;78.46;92382.55;1639612;84;21071;-59
2022/04/02 07:04:25;;;;;;;11.68;7.97;;;;;;;9.82;78.92;92384.68;1638468;85;21124;-62
2022/04/02 07:06:54;;;;;;;11.28;8.60;;;;;;;9.83;79.21;92394.41;1639999;84;21023;-61
2022/04/02 07:09:21;;;;;;;9.13;6.05;;;;;;;9.86;79.27;92390.67;1640176;85;21503;-58
2022/04/02 07:11:50;;;;;;;8.30;6.70;;;;;;;9.94;79.63;92395.77;1643646;84;21061;-61
2022/04/02 07:14:17;;;;;;;9.63;7.05;;;;;;;10.03;79.51;92395.56;1643860;84;21444;-63
2022/04/02 07:16:46;;;;;;;10.20;7.10;;;;;;;10.10;79.91;92396.42;1634155;84;21163;-61
2022/04/02 07:19:14;;;;;;;11.45;8.05;;;;;;;10.16;79.62;92392.43;1639830;84;21081;-64
2022/04/02 07:21:43;;;;;;;15.48;9.88;;;;;;;10.20;79.54;92400.42;1643630;84;21036;-60
2022/04/02 07:24:11;;;;;;;16.42;8.78;;;;;;;10.22;79.21;92396.55;1635610;85;20941;-60
2022/04/02 07:26:39;;;;;;;10.82;7.65;;;;;;;10.24;79.50;92399.54;1647046;85;21029;-61
2022/04/02 07:29:09;;;;;;;8.65;7.10;;;;;;;10.21;79.14;92399.94;1641530;84;21187;-63
2022/04/02 07:31:37;;;;;;;13.93;8.83;;;;;;;10.19;79.06;92410.66;1650994;84;22062;-61
2022/04/02 07:34:04;;;;;;;11.48;7.72;;;;;;;10.18;78.98;92408.42;1634902;84;21417;-58
2022/04/02 07:36:40;;;;;;;11.53;7.30;;;;;;;10.17;78.72;92406.28;1616394;84;21048;-60
2022/04/02 07:39:15;;;;;;;10.25;6.10;;;;;;;10.16;78.79;92408.17;1646228;84;21477;-62
2022/04/02 07:41:51;;;;;;;6.03;5.42;;;;;;;10.14;78.59;92403.81;1647586;84;21028;-63
2022/04/02 07:44:58;;;;;;;6.72;5.53;;;;;;;10.13;78.98;92409.91;1631048;85;21025;-65
2022/04/02 07:47:32;;;;;;;8.95;6.47;;;;;;;10.14;79.05;92410.04;1645136;85;21009;-62
2022/04/02 07:50:05;;;;;;;6.87;5.78;;;;;;;10.15;78.84;92412.17;1637719;84;22006;-58
2022/04/02 07:52:36;;;;;;;6.83;5.15;;;;;;;10.15;78.47;92414.92;1618124;86;21078;-65
2022/04/02 07:55:07;;;;;;;6.10;5.30;;;;;;;10.20;78.34;92423.78;1632966;85;21147;-63
2022/04/02 07:57:44;;;;;;;5.60;4.92;;;;;;;10.25;77.80;92423.78;1632937;85;21182;-61
2022/04/02 08:00:15;;;;;;;6.87;5.20;;;;;;;10.33;77.49;92426.77;1643919;84;21036;-62
2022/04/02 08:02:45;;;;;;;6.78;5.83;;;;;;;10.36;77.08;92439.51;1645491;84;21657;-63
2022/04/02 08:05:22;;;;;;;12.45;7.30;;;;;;;10.45;77.09;92427.63;1635159;85;21183;-62
2022/04/02 08:07:57;;;;;;;10.60;7.33;;;;;;;10.60;77.34;92430.09;1640107;85;21134;-63
2022/04/02 08:10:23;;;;;;;7.47;6.47;;;;;;;10.73;76.73;92430.45;1634853;85;21001;-59
2022/04/02 08:12:51;;;;;;;9.10;6.67;;;;;;;10.86;76.20;92438.92;1646367;85;21057;-60
2022/04/02 08:15:20;;;;;;;7.10;5.55;;;;;;;10.94;75.32;92439.89;1651494;84;21470;-61
2022/04/02 08:17:53;;;;;;;12.20;8.83;;;;;;;10.97;74.90;92438.88;1650501;84;21024;-62
2022/04/02 08:20:22;;;;;;;10.50;7.70;;;;;;;10.97;74.97;92436.12;1645188;84;21157;-60
2022/04/02 08:22:52;;;;;;;10.25;7.55;;;;;;;11.02;74.51;92439.47;1647766;84;21099;-60
2022/04/02 08:25:22;;;;;;;10.43;8.10;;;;;;;11.06;74.17;92443.34;1617011;84;21540;-65
2022/04/02 08:28:13;;;;;;;21.17;14.47;;;;;;;11.06;73.93;92437.23;1644029;85;21128;-62
2022/04/02 08:31:09;;;;;;;10.32;7.50;;;;;;;11.06;72.16;92439.98;1634816;84;21519;-62
2022/04/02 08:34:06;;;;;;;5.65;4.65;;;;;;;11.02;71.91;92449.75;1643688;84;21020;-60
2022/04/02 08:37:14;;;;;;;6.75;5.30;;;;;;;11.06;70.88;92448.23;1636955;84;21882;-62
2022/04/02 08:40:28;;;;;;;7.45;5.47;;;;;;;11.13;71.83;92457.33;1644079;85;21001;-62
2022/04/02 08:43:51;;;;;;;8.03;6.45;;;;;;;11.29;72.42;92451.02;1617046;86;21070;-62
2022/04/02 08:46:36;;;;;;;7.50;6.00;;;;;;;11.47;72.20;92443.56;1613813;86;21155;-61
2022/04/02 08:49:24;;;;;;;5.83;5.22;;;;;;;11.75;72.47;92452.44;1641150;84;21076;-61
2022/04/02 08:52:13;;;;;;;7.35;5.08;;;;;;;11.85;70.84;92454.25;1648878;84;21022;-60
2022/04/02 08:54:47;;;;;;;8.35;6.58;;;;;;;11.95;70.44;92441.06;1637672;85;22607;-60
2022/04/02 08:57:32;;;;;;;12.75;8.60;;;;;;;12.11;71.39;92451.20;1646519;85;21039;-59
2022/04/02 09:00:08;;;;;;;12.20;8.90;;;;;;;12.30;71.25;92447.92;1623370;86;21930;-58
2022/04/02 09:03:29;;;;;;;10.45;7.65;;;;;;;12.43;70.41;92450.84;1641619;84;21255;-61
2022/04/02 09:06:22;;;;;;;8.08;5.45;;;;;;;12.49;69.14;92455.66;1576569;88;21046;-59
2022/04/02 09:09:07;;;;;;;6.60;5.15;;;;;;;12.55;67.47;92439.19;1640169;84;21035;-61
2022/04/02 09:11:58;;;;;;;7.12;4.40;;;;;;;12.66;66.61;92452.13;1636885;84;21112;-62
2022/04/02 09:14:46;;;;;;;5.40;4.28;;;;;;;12.79;65.73;92444.75;1647283;85;21062;-60
2022/04/02 09:17:53;;;;;;;4.90;3.70;;;;;;;12.94;65.45;92457.53;1645944;85;21138;-62
2022/04/02 09:20:45;;;;;;;4.90;3.47;;;;;;;13.03;62.80;92456.44;1647180;84;21024;-60
2022/04/02 09:23:19;;;;;;;3.67;2.47;;;;;;;13.12;60.57;92451.97;1635280;84;21470;-62
2022/04/02 09:26:24;;;;;;;1.98;1.87;;;;;;;13.24;59.87;92448.56;1655309;84;21019;-61
2022/04/02 09:29:16;;;;;;;5.30;4.90;;;;;;;13.33;57.80;92456.50;1644864;85;21067;-63
2022/04/02 09:32:15;;;;;;;2.10;2.00;;;;;;;13.35;57.75;92451.83;1632457;84;22528;-58
2022/04/02 09:34:57;;;;;;;4.33;3.02;;;;;;;13.46;56.32;92455.84;1642697;85;21071;-62
2022/04/02 09:37:47;;;;;;;6.25;3.08;;;;;;;13.43;56.24;92450.72;1603522;86;21851;-60
2022/04/02 09:40:15;;;;;;;4.30;3.35;;;;;;;13.25;56.00;92454.84;1643137;84;21461;-62
2022/04/02 09:42:49;;;;;;;5.53;3.37;;;;;;;13.13;56.85;92451.46;1646036;84;21081;-60
2022/04/02 09:45:18;;;;;;;3.20;2.90;;;;;;;13.07;57.04;92458.30;1625423;85;21146;-62
2022/04/02 09:48:03;;;;;;;10.03;4.62;;;;;;;13.04;55.59;92446.27;1640753;85;21075;-61
2022/04/02 09:50:30;;;;;;;17.10;5.75;;;;;;;13.07;55.47;92455.54;1635868;85;21181;-58
2022/04/02 09:53:19;;;;;;;5.42;2.60;;;;;;;12.97;55.55;92453.00;1640455;85;22042;-62
2022/04/02 09:56:26;;;;;;;5.25;3.52;;;;;;;12.88;54.97;92454.06;1641985;84;21081;-63
2022/04/02 09:59:05;;;;;;;7.33;3.15;;;;;;;12.74;54.34;92456.57;1647555;84;21539;-60
2022/04/02 10:01:40;;;;;;;8.58;3.45;;;;;;;12.65;54.50;92458.30;1633672;85;22478;-60
2022/04/02 10:04:18;;;;;;;3.02;2.45;;;;;;;12.68;55.32;92466.91;1644888;85;21002;-59
2022/04/02 10:06:49;;;;;;;3.65;2.80;;;;;;;12.75;54.44;92451.81;1641373;85;21561;-61
2022/04/02 10:09:22;;;;;;;4.40;3.50;;;;;;;12.79;54.54;92466.83;1641120;84;21150;-62
2022/04/02 10:11:52;;;;;;;3.72;3.30;;;;;;;12.82;54.85;92463.03;1617751;86;21221;-60
2022/04/02 10:14:23;;;;;;;5.20;3.70;;;;;;;12.91;53.67;92471.60;1604449;87;21172;-63
2022/04/02 10:16:56;;;;;;;5.65;2.95;;;;;;;13.05;53.23;92467.09;1596155;87;21712;-61
2022/04/02 10:19:31;;;;;;;18.10;7.33;;;;;;;13.09;53.44;92473.70;1595776;87;21136;-63
2022/04/02 10:22:08;;;;;;;4.92;3.77;;;;;;;13.04;53.97;92469.00;1607357;87;21545;-62
2022/04/02 10:24:50;;;;;;;11.70;5.42;;;;;;;12.98;53.94;92464.15;1651825;84;21890;-60
2022/04/02 10:27:35;;;;;;;11.18;5.20;;;;;;;12.92;53.40;92468.95;1637841;85;22016;-60
2022/04/02 10:30:12;;;;;;;8.53;5.70;;;;;;;12.82;53.54;92475.45;1636778;84;21064;-62
2022/04/02 10:35:50;;;;;;;11.75;4.97;;;;;;;12.58;54.19;92480.94;1629873;85;21457;-62
2022/04/02 10:38:37;;;;;;;19.35;7.58;;;;;;;12.48;54.54;92477.61;1648129;85;21158;-62
2022/04/02 10:41:18;;;;;;;17.55;6.53;;;;;;;12.44;56.41;92487.45;1641299;84;21032;-62
2022/04/02 10:44:06;;;;;;;13.45;6.67;;;;;;;12.36;56.95;92485.11;1628195;85;21503;-63
2022/04/02 10:46:33;;;;;;;8.35;5.60;;;;;;;12.27;56.53;92490.95;1640393;84;21441;-63
2022/04/02 10:49:05;;;;;;;14.28;6.87;;;;;;;11.95;57.53;92504.44;1640659;85;21686;-63
2022/04/02 10:51:34;;;;;;;11.78;7.25;;;;;;;11.80;58.93;92508.76;1620249;86;21161;-60
2022/04/02 10:54:12;;;;;;;8.90;5.67;;;;;;;11.71;59.72;92504.30;1645476;84;21114;-61
2022/04/02 10:56:45;;;;;;;10.75;6.67;;;;;;;11.54;60.38;92495.33;1639902;84;21029;-62
2022/04/02 10:59:15;;;;;;;7.95;6.87;;;;;;;11.39;60.57;92508.64;1644297;85;21071;-62
2022/04/02 11:01:43;;;;;;;8.80;5.87;;;;;;;11.23;60.80;92497.09;1640095;85;21008;-62
2022/04/02 11:04:52;;;;;;;11.63;8.28;;;;;;;11.15;61.65;92498.84;1630977;85;21795;-61
2022/04/02 11:07:35;;;;;;;12.85;7.78;;;;;;;11.08;62.60;92504.88;1639956;84;21053;-61
2022/04/02 11:10:03;;;;;;;;;;;;;;;11.03;62.99;92513.91;1643065;84;21144;-62
2022/04/02 11:12:37;;;;;;;11.18;7.50;;;;;;;11.05;63.47;92504.52;1641146;85;20865;-60
2022/04/02 11:15:13;;;;;;;10.48;7.40;;;;;;;10.99;63.31;92508.53;1644708;84;21548;-60
2022/04/02 11:17:44;;;;;;;7.87;6.67;;;;;;;10.88;62.83;92510.67;1633867;85;21289;-63
2022/04/02 11:20:25;;;;;;;11.55;7.35;;;;;;;10.66;63.70;92516.82;1632751;85;21068;-63
2022/04/02 11:23:02;;;;;;;14.90;9.10;;;;;;;10.48;64.31;92517.94;1641255;85;21030;-63
2022/04/02 11:25:35;;;;;;;20.23;9.30;;;;;;;10.33;64.65;92528.45;1639613;84;22043;-63
2022/04/02 11:28:14;;;;;;;12.43;7.10;;;;;;;10.18;65.23;92523.80;1643010;85;21027;-63
2022/04/02 11:30:51;;;;;;;13.95;7.05;;;;;;;10.04;65.56;92520.66;1646946;85;21168;-63
2022/04/02 11:33:24;;;;;;;14.38;7.03;;;;;;;9.92;66.10;92523.22;1638263;85;21048;-62
2022/04/02 11:35:55;;;;;;;9.95;6.45;;;;;;;9.86;66.80;92530.09;1649835;84;21106;-63
2022/04/02 11:38:30;;;;;;;10.80;6.40;;;;;;;9.89;67.00;92532.45;1641934;85;21354;-62
2022/04/02 11:41:21;;;;;;;18.02;9.68;;;;;;;9.94;67.31;92530.33;1643963;84;21055;-60
2022/04/02 11:43:52;;;;;;;13.00;8.28;;;;;;;9.96;67.17;92534.09;1638721;85;21167;-60
2022/04/02 11:46:21;;;;;;;13.62;8.28;;;;;;;10.02;67.32;92534.14;1613499;86;21593;-63
2022/04/02 11:49:04;;;;;;;15.38;9.08;;;;;;;10.09;67.42;92539.13;1644368;84;21033;-64
2022/04/02 11:51:36;;;;;;;11.78;7.85;;;;;;;10.14;67.16;92539.16;1622187;84;21651;-59
2022/04/02 11:54:08;;;;;;;14.65;7.95;;;;;;;10.17;67.22;92544.29;1634263;85;21103;-59
2022/04/02 11:56:43;;;;;;;11.57;8.68;;;;;;;10.12;66.96;92543.62;1629033;84;22403;-62
2022/04/02 11:59:08;;;;;;;12.73;8.78;;;;;;;10.07;66.96;92543.77;1642931;86;21027;-58